Time;durP1;ratioP1;P1;durP2;ratioP2;P2;SDS_P1;SDS_P2;PMS_P1;PMS_P2;Temp;Humidity;BMP_temperature;BMP_pressure;BME280_temperature;BME280_humidity;BME280_pressure;Samples;Min_cycle;Max_cycle;Signal;HPM_P1;HPM_P2
2021/09/03 00:00:31;;;;;;;5.10;3.10;;;;;;;11.28;100.00;101888.88;5102494;28;20436;-80
2021/09/03 00:02:59;;;;;;;3.73;2.47;;;;;;;11.41;100.00;101883.97;5102978;28;20455;-80
2021/09/03 00:05:26;;;;;;;5.17;3.07;;;;;;;11.40;100.00;101885.88;5102503;28;20937;-80
2021/09/03 00:07:52;;;;;;;5.10;2.97;;;;;;;11.48;100.00;101879.09;5103127;28;20471;-80
2021/09/03 00:10:21;;;;;;;3.00;2.63;;;;;;;11.46;100.00;101887.47;5102927;28;20451;-80
2021/09/03 00:12:48;;;;;;;4.80;2.87;;;;;;;11.45;100.00;101885.88;5102553;28;20527;-80
2021/09/03 00:15:17;;;;;;;5.07;2.53;;;;;;;11.49;100.00;101878.00;5103094;28;20447;-80
2021/09/03 00:17:43;;;;;;;7.00;3.10;;;;;;;11.44;100.00;101878.00;5103200;28;20485;-80
2021/09/03 00:20:13;;;;;;;9.60;3.47;;;;;;;11.42;100.00;101874.75;5102603;28;20437;-80
2021/09/03 00:22:40;;;;;;;7.17;3.33;;;;;;;11.32;100.00;101872.88;5102778;28;20437;-80
2021/09/03 00:25:09;;;;;;;6.40;3.83;;;;;;;11.25;100.00;101877.78;5102864;28;20534;-79
2021/09/03 00:27:36;;;;;;;6.70;3.63;;;;;;;11.34;100.00;101878.84;5103120;28;20460;-80
2021/09/03 00:30:03;;;;;;;4.00;3.20;;;;;;;11.25;100.00;101878.59;5102809;28;20444;-79
2021/09/03 00:32:30;;;;;;;11.20;3.67;;;;;;;11.11;100.00;101872.91;5103032;28;20448;-79
2021/09/03 00:34:56;;;;;;;3.40;2.17;;;;;;;11.06;100.00;101874.78;5102874;28;20476;-79
2021/09/03 00:37:24;;;;;;;5.67;3.43;;;;;;;11.04;100.00;101876.97;5103110;28;20476;-80
2021/09/03 00:39:51;;;;;;;10.13;4.27;;;;;;;11.08;99.46;101870.75;5103234;28;20436;-79
2021/09/03 00:42:17;;;;;;;4.80;3.60;;;;;;;10.94;100.00;101869.66;5103145;28;20444;-80
2021/09/03 00:44:44;;;;;;;6.17;3.40;;;;;;;10.94;100.00;101874.28;5102909;28;20440;-80
2021/09/03 00:47:11;;;;;;;4.00;2.97;;;;;;;11.01;100.00;101869.38;5103606;28;20933;-80
2021/09/03 00:49:37;;;;;;;8.63;4.30;;;;;;;11.04;100.00;101874.28;5104412;28;20839;-81
2021/09/03 00:52:06;;;;;;;4.80;3.60;;;;;;;11.07;100.00;101868.31;5104920;28;20436;-80
2021/09/03 00:54:35;;;;;;;7.33;4.10;;;;;;;11.09;100.00;101863.41;5104241;28;20433;-80
2021/09/03 00:57:02;;;;;;;4.50;2.90;;;;;;;11.08;100.00;101864.50;5103855;28;20495;-79
2021/09/03 00:59:28;;;;;;;6.97;4.07;;;;;;;11.09;100.00;101860.69;5103022;28;20550;-80
2021/09/03 01:01:55;;;;;;;5.53;4.00;;;;;;;11.03;100.00;101859.09;5104862;28;20433;-80
2021/09/03 01:04:22;;;;;;;5.63;3.60;;;;;;;11.03;100.00;101850.97;5104250;28;20436;-80
2021/09/03 01:06:49;;;;;;;4.10;2.73;;;;;;;10.99;100.00;101855.28;5103503;28;20440;-80
2021/09/03 01:09:15;;;;;;;5.23;2.57;;;;;;;10.95;100.00;101855.03;5103953;28;20463;-80
2021/09/03 01:11:43;;;;;;;6.13;2.97;;;;;;;10.98;100.00;101853.66;5104645;28;20452;-80
2021/09/03 01:14:10;;;;;;;5.93;3.33;;;;;;;10.98;100.00;101842.81;5105517;28;20842;-80
2021/09/03 01:16:36;;;;;;;4.13;2.97;;;;;;;10.94;100.00;101855.31;5105355;28;20491;-80
2021/09/03 01:19:03;;;;;;;4.93;3.33;;;;;;;10.88;100.00;101854.47;5105499;28;20805;-80
2021/09/03 01:21:29;;;;;;;4.90;3.33;;;;;;;10.75;100.00;101853.13;5105497;28;20447;-79
2021/09/03 01:23:57;;;;;;;5.33;3.43;;;;;;;10.68;100.00;101849.06;5105852;28;20448;-81
2021/09/03 01:26:25;;;;;;;6.20;4.40;;;;;;;10.71;100.00;101838.47;5104884;28;20440;-81
2021/09/03 01:28:52;;;;;;;5.03;3.40;;;;;;;10.64;100.00;101842.56;5104204;28;20464;-81
2021/09/03 01:31:19;;;;;;;7.60;3.57;;;;;;;10.56;100.00;101833.06;5105687;28;20440;-80
2021/09/03 01:33:47;;;;;;;5.40;3.30;;;;;;;10.48;100.00;101841.72;5105587;28;20506;-80
2021/09/03 01:36:14;;;;;;;9.50;4.50;;;;;;;10.53;100.00;101834.41;5106303;28;20488;-80
2021/09/03 01:38:42;;;;;;;6.70;3.80;;;;;;;10.45;100.00;101823.31;5106888;28;20475;-80
2021/09/03 01:41:10;;;;;;;4.53;3.10;;;;;;;10.34;100.00;101831.41;5107262;28;20824;-80
2021/09/03 01:43:37;;;;;;;6.63;4.13;;;;;;;10.45;100.00;101834.16;5107382;28;20445;-80
2021/09/03 01:46:06;;;;;;;4.40;2.90;;;;;;;10.58;100.00;101830.88;5106123;28;20444;-80
2021/09/03 01:48:33;;;;;;;4.80;2.50;;;;;;;10.47;100.00;101826.56;5107138;28;20463;-80
2021/09/03 01:50:59;;;;;;;2.53;2.33;;;;;;;10.43;100.00;101825.47;5107171;28;20445;-80
2021/09/03 01:53:26;;;;;;;4.67;3.00;;;;;;;10.46;100.00;101819.53;5107245;28;20447;-80
2021/09/03 01:55:52;;;;;;;5.77;4.30;;;;;;;10.66;100.00;101816.81;5108258;28;20452;-80
2021/09/03 01:58:20;;;;;;;2.17;2.07;;;;;;;10.72;100.00;101817.63;5107579;28;20472;-80
2021/09/03 02:00:46;;;;;;;3.03;2.27;;;;;;;10.75;100.00;101814.38;5106960;28;20810;-81
2021/09/03 02:03:14;;;;;;;3.93;2.23;;;;;;;10.78;100.00;101814.63;5107279;28;20463;-81
2021/09/03 02:05:41;;;;;;;4.50;2.93;;;;;;;10.79;100.00;101820.88;5106759;28;20479;-81
2021/09/03 02:08:07;;;;;;;4.30;2.70;;;;;;;10.81;100.00;101810.59;5107007;28;21126;-81
2021/09/03 02:10:34;;;;;;;4.03;3.27;;;;;;;10.89;100.00;101818.16;5106567;28;20447;-80
2021/09/03 02:13:01;;;;;;;3.33;2.80;;;;;;;10.88;100.00;101815.72;5107860;28;20432;-81
2021/09/03 02:15:28;;;;;;;5.80;2.90;;;;;;;10.84;100.00;101810.03;5108015;28;20463;-81
2021/09/03 02:17:55;;;;;;;5.90;3.30;;;;;;;10.83;100.00;101802.97;5107957;28;20484;-81
2021/09/03 02:20:21;;;;;;;5.30;3.67;;;;;;;10.78;100.00;101797.56;5108335;28;20448;-81
2021/09/03 02:22:48;;;;;;;10.53;3.53;;;;;;;10.84;100.00;101804.59;5105999;28;20433;-81
2021/09/03 02:25:14;;;;;;;4.80;3.90;;;;;;;10.67;100.00;101793.22;5106187;28;20455;-81
2021/09/03 02:27:41;;;;;;;7.77;3.60;;;;;;;10.57;100.00;101799.47;5106066;28;20468;-81
2021/09/03 02:30:09;;;;;;;11.60;4.10;;;;;;;10.47;100.00;101788.63;5106548;28;20452;-81
2021/09/03 02:32:36;;;;;;;6.93;3.47;;;;;;;10.48;100.00;101785.63;5106737;28;20447;-81
2021/09/03 02:35:04;;;;;;;6.07;3.30;;;;;;;10.44;100.00;101787.25;5106197;28;20441;-81
2021/09/03 02:37:30;;;;;;;8.30;4.33;;;;;;;10.44;100.00;101779.13;5106014;28;20487;-81
2021/09/03 02:39:57;;;;;;;5.90;3.10;;;;;;;10.56;100.00;101785.09;5106927;28;20443;-81
2021/09/03 02:42:23;;;;;;;10.53;5.43;;;;;;;10.64;100.00;101774.81;5106252;28;20445;-81
2021/09/03 02:44:50;;;;;;;6.87;2.80;;;;;;;10.67;100.00;101780.50;5109598;28;20433;-80
2021/09/03 02:47:16;;;;;;;10.13;4.07;;;;;;;10.71;100.00;101780.75;5108378;28;20452;-81
2021/09/03 02:49:44;;;;;;;5.23;3.40;;;;;;;10.71;100.00;101778.06;5101918;28;20432;-81
2021/09/03 02:52:10;;;;;;;3.47;2.50;;;;;;;10.77;100.00;101769.66;5100531;28;20440;-80
2021/09/03 02:54:37;;;;;;;11.30;3.70;;;;;;;10.74;100.00;101770.19;5099626;28;20437;-80
2021/09/03 02:57:04;;;;;;;14.63;3.50;;;;;;;10.67;100.00;101761.53;5100164;28;20483;-80
2021/09/03 02:59:30;;;;;;;8.20;3.93;;;;;;;10.69;100.00;101762.06;5100297;28;20844;-81
2021/09/03 03:01:57;;;;;;;7.67;4.80;;;;;;;10.70;100.00;101755.56;5100916;28;20436;-81
2021/09/03 03:04:23;;;;;;;4.30;3.03;;;;;;;10.69;100.00;101758.56;5100817;28;20803;-81
2021/09/03 03:06:51;;;;;;;8.00;3.60;;;;;;;10.63;100.00;101751.53;5100120;28;20551;-81
2021/09/03 03:09:17;;;;;;;5.97;3.37;;;;;;;10.51;100.00;101746.38;5100491;28;20460;-81
2021/09/03 03:11:44;;;;;;;3.73;2.73;;;;;;;10.57;100.00;101748.00;5100549;28;20453;-81
2021/09/03 03:14:15;;;;;;;10.30;6.03;;;;;;;10.56;100.00;101738.25;5100506;28;20448;-81
2021/09/03 03:16:41;;;;;;;7.87;4.27;;;;;;;10.66;100.00;101745.53;5099542;28;20888;-81
2021/09/03 03:19:08;;;;;;;7.63;3.70;;;;;;;10.59;100.00;101733.09;5099532;28;20468;-81
2021/09/03 03:21:35;;;;;;;7.43;3.73;;;;;;;10.48;100.00;101734.19;5099914;28;20455;-81
2021/09/03 03:24:03;;;;;;;8.40;3.30;;;;;;;10.43;100.00;101733.38;5099083;28;20815;-81
2021/09/03 03:26:30;;;;;;;9.97;3.93;;;;;;;10.42;100.00;101737.97;5100806;28;20817;-81
2021/09/03 03:28:56;;;;;;;7.53;4.53;;;;;;;10.26;100.00;101734.44;5100548;28;20554;-81
2021/09/03 03:31:23;;;;;;;14.40;4.20;;;;;;;10.15;100.00;101727.38;5103508;28;20436;-81
2021/09/03 03:33:49;;;;;;;6.60;3.80;;;;;;;10.09;100.00;101723.88;5103581;28;20436;-81
2021/09/03 03:36:16;;;;;;;5.87;3.23;;;;;;;10.07;100.00;101728.72;5103213;28;20429;-82
2021/09/03 03:38:42;;;;;;;5.50;3.17;;;;;;;10.15;100.00;101724.69;5103861;28;20492;-80
2021/09/03 03:41:10;;;;;;;12.30;4.17;;;;;;;10.28;100.00;101721.47;5103118;28;20448;-81
2021/09/03 03:43:37;;;;;;;7.30;5.00;;;;;;;10.37;100.00;101720.94;5103240;28;20449;-81
2021/09/03 03:46:03;;;;;;;6.53;3.50;;;;;;;10.39;100.00;101721.47;5102633;28;20445;-81
2021/09/03 03:48:30;;;;;;;3.73;2.70;;;;;;;10.42;100.00;101718.22;5101978;28;20460;-81
2021/09/03 03:50:56;;;;;;;6.17;3.73;;;;;;;10.41;100.00;101714.69;5101964;28;20443;-81
2021/09/03 03:53:23;;;;;;;5.10;2.80;;;;;;;10.52;100.00;101721.72;5102222;28;20809;-81
2021/09/03 03:55:49;;;;;;;6.53;3.30;;;;;;;10.48;100.00;101715.22;5102227;28;20455;-81
2021/09/03 03:58:18;;;;;;;2.80;2.47;;;;;;;10.49;100.00;101716.84;5101686;28;20579;-81
2021/09/03 04:00:44;;;;;;;6.70;4.70;;;;;;;10.44;100.00;101716.03;5102142;28;20451;-81
2021/09/03 04:03:11;;;;;;;4.17;2.60;;;;;;;10.43;100.00;101714.41;5101281;28;20439;-81
2021/09/03 04:05:38;;;;;;;8.13;3.57;;;;;;;10.29;100.00;101709.53;5100783;28;21055;-81
2021/09/03 04:08:05;;;;;;;9.63;3.37;;;;;;;10.30;100.00;101710.34;5101497;28;20462;-81
2021/09/03 04:10:32;;;;;;;7.10;3.60;;;;;;;10.32;100.00;101698.19;5101711;28;20452;-81
2021/09/03 04:12:58;;;;;;;5.47;3.60;;;;;;;10.29;100.00;101692.50;5101655;28;20823;-81
2021/09/03 04:15:26;;;;;;;5.23;3.07;;;;;;;10.14;100.00;101698.69;5102727;28;20436;-80
2021/09/03 04:17:53;;;;;;;7.30;3.90;;;;;;;10.19;100.00;101689.75;5100834;28;20892;-80
2021/09/03 04:20:19;;;;;;;7.47;3.97;;;;;;;10.15;100.00;101694.91;5101044;28;20455;-80
2021/09/03 04:22:46;;;;;;;9.00;3.13;;;;;;;10.08;100.00;101697.84;5100817;28;20454;-80
2021/09/03 04:25:12;;;;;;;4.50;2.70;;;;;;;10.09;100.00;101701.38;5101095;28;20452;-80
2021/09/03 04:27:41;;;;;;;5.73;3.73;;;;;;;10.17;100.00;101695.44;5100936;28;20475;-80
2021/09/03 04:30:09;;;;;;;6.67;3.67;;;;;;;10.22;100.00;101692.72;5101123;28;20451;-80
2021/09/03 04:32:37;;;;;;;6.77;3.90;;;;;;;10.15;100.00;101689.47;5100899;28;20429;-80
2021/09/03 04:35:04;;;;;;;7.10;3.90;;;;;;;10.16;100.00;101685.69;5100500;28;20448;-80
2021/09/03 04:37:31;;;;;;;6.50;3.37;;;;;;;10.27;100.00;101681.94;5100907;28;20484;-80
2021/09/03 04:39:57;;;;;;;4.93;3.17;;;;;;;10.40;100.00;101679.75;5100533;28;20441;-80
2021/09/03 04:42:24;;;;;;;5.40;2.23;;;;;;;10.38;100.00;101676.50;5099441;28;20448;-81
2021/09/03 04:44:50;;;;;;;4.63;2.83;;;;;;;10.36;100.00;101657.81;5100183;28;20447;-81
2021/09/03 04:47:17;;;;;;;6.40;2.83;;;;;;;10.37;100.00;101664.06;5099810;28;20444;-81
2021/09/03 04:49:44;;;;;;;6.10;3.80;;;;;;;10.47;100.00;101661.31;5099690;28;20448;-81
2021/09/03 04:52:11;;;;;;;11.27;3.60;;;;;;;10.56;100.00;101660.47;5098423;28;20833;-81
2021/09/03 04:54:37;;;;;;;5.60;3.33;;;;;;;10.66;100.00;101662.34;5097079;28;20782;-80
2021/09/03 04:57:04;;;;;;;7.93;3.40;;;;;;;10.68;100.00;101660.19;5099217;28;20448;-81
2021/09/03 04:59:31;;;;;;;7.43;4.60;;;;;;;10.69;100.00;101663.72;5118670;22;20544;-76
2021/09/03 05:01:57;;;;;;;5.70;3.90;;;;;;;10.75;100.00;101657.19;5115763;28;20470;-75
2021/09/03 05:04:23;;;;;;;6.60;3.70;;;;;;;10.73;100.00;101659.38;5116059;28;20435;-76
2021/09/03 05:06:51;;;;;;;4.57;2.70;;;;;;;10.75;100.00;101657.19;5115855;28;20462;-75
2021/09/03 05:09:18;;;;;;;1.93;1.70;;;;;;;10.75;100.00;101660.69;5116233;28;20870;-75
2021/09/03 05:11:44;;;;;;;19.10;3.40;;;;;;;10.77;100.00;101652.31;5115685;28;20460;-75
2021/09/03 05:14:10;;;;;;;8.07;3.50;;;;;;;10.76;100.00;101656.13;5115637;28;20435;-75
2021/09/03 05:16:37;;;;;;;7.93;3.80;;;;;;;10.72;100.00;101652.34;5115736;28;20440;-74
2021/09/03 05:19:03;;;;;;;6.13;4.07;;;;;;;10.67;100.00;101661.28;5115503;28;20483;-73
2021/09/03 05:21:30;;;;;;;5.50;2.70;;;;;;;10.76;100.00;101659.63;5115469;28;20459;-74
2021/09/03 05:23:57;;;;;;;5.03;2.57;;;;;;;10.85;100.00;101644.44;5115446;28;20440;-73
2021/09/03 05:26:24;;;;;;;4.63;3.77;;;;;;;10.93;100.00;101642.22;5115394;28;20811;-74
2021/09/03 05:28:50;;;;;;;8.97;4.83;;;;;;;11.04;100.00;101649.22;5115402;28;20431;-70
2021/09/03 05:31:17;;;;;;;6.27;3.23;;;;;;;11.07;100.00;101641.34;5115180;28;20466;-71
2021/09/03 05:33:43;;;;;;;6.03;3.10;;;;;;;11.19;100.00;101649.16;5115226;28;20447;-72
2021/09/03 05:36:10;;;;;;;10.77;5.00;;;;;;;11.32;100.00;101645.81;5115160;28;20458;-73
2021/09/03 05:38:36;;;;;;;13.23;4.27;;;;;;;11.46;100.00;101656.88;5114988;28;20479;-73
2021/09/03 05:41:04;;;;;;;4.30;2.93;;;;;;;11.53;100.00;101662.81;5114782;28;20459;-71
2021/09/03 05:43:31;;;;;;;7.27;4.07;;;;;;;11.57;100.00;101658.44;5115164;28;20439;-73
2021/09/03 05:45:57;;;;;;;4.80;4.00;;;;;;;11.70;100.00;101658.91;5115084;28;20443;-74
2021/09/03 05:48:24;;;;;;;6.77;3.20;;;;;;;11.77;100.00;101649.34;5115038;28;20439;-70
2021/09/03 05:50:50;;;;;;;2.90;2.43;;;;;;;11.89;100.00;101661.78;5114905;28;20495;-74
2021/09/03 05:53:17;;;;;;;5.67;3.03;;;;;;;12.00;100.00;101657.91;5114590;28;20443;-70
2021/09/03 05:55:43;;;;;;;6.03;3.53;;;;;;;12.12;100.00;101661.03;5114857;28;20444;-73
2021/09/03 05:58:11;;;;;;;4.43;2.80;;;;;;;12.23;100.00;101657.16;5114634;28;20487;-74
2021/09/03 06:00:37;;;;;;;3.07;2.53;;;;;;;12.35;100.00;101656.75;5114296;28;20424;-73
2021/09/03 06:03:04;;;;;;;4.33;2.93;;;;;;;12.42;100.00;101651.00;5114990;28;20432;-73
2021/09/03 06:05:30;;;;;;;7.37;3.70;;;;;;;12.48;100.00;101652.56;5114549;28;20447;-74
2021/09/03 06:07:57;;;;;;;6.97;4.30;;;;;;;12.57;100.00;101656.25;5114626;28;20443;-73
2021/09/03 06:10:23;;;;;;;6.50;4.00;;;;;;;12.65;100.00;101652.94;5114595;28;20436;-72
2021/09/03 06:12:50;;;;;;;8.20;5.03;;;;;;;12.68;100.00;101657.78;5114406;28;20565;-74
2021/09/03 06:15:18;;;;;;;4.97;3.87;;;;;;;12.72;100.00;101652.59;5114473;28;20442;-73
2021/09/03 06:17:44;;;;;;;6.70;4.10;;;;;;;12.78;100.00;101651.44;5113954;28;21015;-72
2021/09/03 06:20:12;;;;;;;4.83;3.63;;;;;;;12.84;100.00;101648.38;5114083;28;20452;-75
2021/09/03 06:22:39;;;;;;;7.63;3.53;;;;;;;12.94;100.00;101657.50;5114298;28;20471;-74
2021/09/03 06:25:06;;;;;;;8.00;4.00;;;;;;;13.03;100.00;101658.47;5114291;28;20471;-74
2021/09/03 06:27:33;;;;;;;10.20;5.40;;;;;;;13.15;100.00;101656.16;5114465;28;20444;-73
2021/09/03 06:29:59;;;;;;;6.13;3.53;;;;;;;13.26;100.00;101654.94;5113905;28;20936;-72
2021/09/03 06:32:29;;;;;;;11.93;4.77;;;;;;;13.36;100.00;101649.34;5114340;28;20456;-73
2021/09/03 06:34:57;;;;;;;5.93;3.73;;;;;;;13.38;100.00;101647.16;5114056;28;20444;-74
2021/09/03 06:37:26;;;;;;;5.83;3.60;;;;;;;13.44;100.00;101647.09;5114004;28;20507;-75
2021/09/03 06:39:53;;;;;;;6.17;3.90;;;;;;;13.47;100.00;101649.22;5114115;28;20504;-75
2021/09/03 06:42:19;;;;;;;8.93;3.87;;;;;;;13.54;100.00;101642.28;5113920;28;20464;-73
2021/09/03 06:44:46;;;;;;;6.67;4.03;;;;;;;13.51;100.00;101640.19;5113979;28;20443;-75
2021/09/03 06:47:13;;;;;;;7.90;4.80;;;;;;;13.58;100.00;101634.34;5114096;28;20440;-74
2021/09/03 06:49:41;;;;;;;7.37;4.57;;;;;;;13.62;100.00;101635.38;5113897;28;20439;-74
2021/09/03 06:52:09;;;;;;;5.63;4.37;;;;;;;13.71;100.00;101636.31;5113799;28;20451;-74
2021/09/03 06:54:37;;;;;;;7.90;3.90;;;;;;;13.68;100.00;101630.66;5114137;28;20435;-75
2021/09/03 06:57:05;;;;;;;7.10;4.70;;;;;;;13.69;100.00;101627.66;5113919;28;20443;-74
2021/09/03 06:59:32;;;;;;;5.80;4.27;;;;;;;13.83;100.00;101630.44;5113638;28;20490;-75
2021/09/03 07:01:58;;;;;;;7.83;4.97;;;;;;;13.96;100.00;101631.59;5113755;28;20459;-75
2021/09/03 07:04:25;;;;;;;6.00;4.00;;;;;;;14.03;100.00;101624.66;5112747;28;20952;-74
2021/09/03 07:06:53;;;;;;;6.90;4.20;;;;;;;14.11;100.00;101625.88;5113713;28;20436;-74
2021/09/03 07:09:20;;;;;;;8.00;4.73;;;;;;;14.23;100.00;101630.84;5113736;28;20531;-75
2021/09/03 07:11:46;;;;;;;4.93;4.20;;;;;;;14.36;100.00;101625.41;5113541;28;20482;-74
2021/09/03 07:14:13;;;;;;;10.50;4.50;;;;;;;14.48;100.00;101622.25;5113748;28;20642;-74
2021/09/03 07:16:39;;;;;;;9.37;5.00;;;;;;;14.58;100.00;101622.03;5113654;28;20448;-74
2021/09/03 07:19:06;;;;;;;7.53;4.73;;;;;;;14.66;100.00;101617.00;5113471;28;20478;-75
2021/09/03 07:21:32;;;;;;;11.83;4.90;;;;;;;14.81;100.00;101625.66;5113380;28;20479;-74
2021/09/03 07:24:00;;;;;;;5.03;3.83;;;;;;;14.94;100.00;101607.69;5113514;28;20467;-74
2021/09/03 07:26:27;;;;;;;9.53;6.20;;;;;;;15.02;100.00;101603.44;5113493;28;20446;-74
2021/09/03 07:28:54;;;;;;;8.17;3.73;;;;;;;15.13;100.00;101605.63;5113446;28;20439;-75
2021/09/03 07:31:21;;;;;;;8.10;5.43;;;;;;;15.26;100.00;101608.63;5113099;28;20497;-74
2021/09/03 07:33:47;;;;;;;7.37;5.60;;;;;;;15.38;100.00;101609.69;5113443;28;20496;-74
2021/09/03 07:36:14;;;;;;;9.03;4.87;;;;;;;15.46;100.00;101608.16;5113419;28;20455;-74
2021/09/03 07:38:40;;;;;;;6.77;4.87;;;;;;;15.57;100.00;101608.72;5113371;28;20479;-75
2021/09/03 07:41:08;;;;;;;6.10;4.47;;;;;;;15.68;100.00;101609.34;5113379;28;20490;-74
2021/09/03 07:43:34;;;;;;;12.13;6.80;;;;;;;15.81;100.00;101603.81;5113465;28;20458;-74
2021/09/03 07:46:01;;;;;;;9.47;4.97;;;;;;;15.85;100.00;101609.47;5113412;28;20441;-74
2021/09/03 07:48:27;;;;;;;7.00;4.77;;;;;;;15.94;100.00;101606.75;5113145;28;20432;-73
2021/09/03 07:50:54;;;;;;;9.13;5.17;;;;;;;15.96;100.00;101610.81;5113201;28;20455;-73
2021/09/03 07:53:20;;;;;;;10.23;6.03;;;;;;;16.08;100.00;101618.44;5113283;28;20446;-74
2021/09/03 07:55:47;;;;;;;10.57;4.43;;;;;;;16.17;100.00;101611.09;5113207;28;20447;-73
2021/09/03 07:58:14;;;;;;;11.03;5.90;;;;;;;16.28;100.00;101617.88;5112938;28;20495;-73
2021/09/03 08:00:41;;;;;;;9.07;5.80;;;;;;;16.39;100.00;101616.50;5113314;28;20431;-73
2021/09/03 08:03:07;;;;;;;12.20;6.30;;;;;;;16.40;100.00;101629.06;5113318;28;20450;-72
2021/09/03 08:05:34;;;;;;;13.70;6.73;;;;;;;16.41;100.00;101627.13;5113059;28;20451;-71
2021/09/03 08:08:02;;;;;;;9.70;5.80;;;;;;;16.50;100.00;101625.22;5113640;28;20440;-73
2021/09/03 08:10:32;;;;;;;16.53;6.37;;;;;;;16.59;100.00;101630.75;5113220;28;20435;-72
2021/09/03 08:12:58;;;;;;;12.67;6.90;;;;;;;16.65;100.00;101611.16;5113119;28;20451;-73
2021/09/03 08:15:26;;;;;;;7.90;5.47;;;;;;;16.72;99.75;101607.97;5114114;28;20989;-73
2021/09/03 08:17:54;;;;;;;10.87;6.00;;;;;;;16.83;99.50;101612.03;5116666;28;20435;-74
2021/09/03 08:20:20;;;;;;;10.30;6.20;;;;;;;16.92;98.98;101611.25;5116770;28;20448;-74
2021/09/03 08:22:48;;;;;;;9.27;6.10;;;;;;;16.98;98.39;101618.97;5116598;28;20455;-72
2021/09/03 08:25:15;;;;;;;8.57;5.20;;;;;;;17.06;97.96;101617.41;5116614;28;20836;-73
2021/09/03 08:27:41;;;;;;;10.50;7.10;;;;;;;17.16;97.39;101619.81;5116483;28;20446;-73
2021/09/03 08:30:09;;;;;;;11.27;5.87;;;;;;;17.21;95.48;101618.84;5116520;28;20444;-73
2021/09/03 08:32:37;;;;;;;10.17;5.07;;;;;;;17.15;94.68;101624.50;5116724;28;20467;-73
2021/09/03 08:35:03;;;;;;;12.37;5.60;;;;;;;17.19;95.50;101608.22;5116505;28;20446;-73
2021/09/03 08:37:30;;;;;;;17.90;8.17;;;;;;;17.24;95.32;101602.59;5116883;28;20439;-73
2021/09/03 08:39:56;;;;;;;14.23;7.43;;;;;;;17.35;95.37;101605.81;5116175;28;20479;-73
2021/09/03 08:42:23;;;;;;;15.23;5.83;;;;;;;17.43;94.29;101602.28;5116187;28;20474;-73
2021/09/03 08:44:51;;;;;;;12.57;6.80;;;;;;;17.48;95.01;101595.84;5116298;28;20451;-73
2021/09/03 08:47:20;;;;;;;14.93;7.17;;;;;;;17.55;93.98;101601.63;5115947;28;20442;-73
2021/09/03 08:49:48;;;;;;;11.80;5.47;;;;;;;17.69;94.77;101601.47;5116137;28;20446;-73
2021/09/03 08:52:14;;;;;;;16.20;7.13;;;;;;;17.73;93.65;101594.22;5116123;28;20463;-74
2021/09/03 08:54:40;;;;;;;10.27;6.80;;;;;;;17.76;93.44;101594.41;5116281;28;20439;-73
2021/09/03 08:57:07;;;;;;;13.83;6.97;;;;;;;17.78;93.80;101589.38;5115997;28;20440;-74
2021/09/03 08:59:33;;;;;;;14.93;6.37;;;;;;;17.87;93.96;101592.13;5115739;28;20487;-74
2021/09/03 09:02:13;;;;;;;8.50;4.57;;;;;;;17.94;93.23;101575.19;5115832;28;20513;-73
2021/09/03 09:04:41;;;;;;;11.30;5.63;;;;;;;18.06;92.85;101575.28;5116216;28;20420;-74
2021/09/03 09:07:10;;;;;;;10.53;5.10;;;;;;;18.14;93.13;101583.50;5115559;28;20941;-74
2021/09/03 09:09:40;;;;;;;15.83;4.57;;;;;;;18.12;90.81;101576.75;5115744;28;20442;-73
2021/09/03 09:12:11;;;;;;;11.20;6.30;;;;;;;18.24;91.29;101576.88;5115431;28;20456;-73
2021/09/03 09:14:59;;;;;;;13.17;5.57;;;;;;;18.36;91.06;101576.94;5115352;28;20463;-73
2021/09/03 09:17:31;;;;;;;7.90;4.73;;;;;;;18.45;88.72;101576.13;5115594;28;20502;-73
2021/09/03 09:19:57;;;;;;;9.73;4.40;;;;;;;18.54;88.65;101563.94;5115263;28;20471;-74
2021/09/03 09:22:26;;;;;;;10.50;5.70;;;;;;;18.65;87.76;101570.69;5115596;28;20463;-73
2021/09/03 09:24:57;;;;;;;9.30;5.10;;;;;;;18.74;87.05;101567.94;5115853;28;20435;-73
2021/09/03 09:27:25;;;;;;;16.07;6.00;;;;;;;18.83;84.99;101571.41;5114830;28;20435;-73
2021/09/03 09:29:52;;;;;;;13.80;4.67;;;;;;;18.85;85.14;101562.84;5115479;28;20489;-73
2021/09/03 09:32:19;;;;;;;11.83;5.77;;;;;;;18.90;83.96;101568.13;5115238;28;20460;-74
2021/09/03 09:34:45;;;;;;;13.07;4.90;;;;;;;18.95;83.88;101567.13;5115316;28;20959;-73
2021/09/03 09:37:15;;;;;;;10.20;4.93;;;;;;;19.00;84.15;101561.47;5123931;28;20447;-74
2021/09/03 09:39:46;;;;;;;10.97;5.10;;;;;;;19.10;83.91;101558.31;5115550;28;20483;-73
2021/09/03 09:42:21;;;;;;;8.67;5.40;;;;;;;19.12;84.27;101556.03;5115134;28;20463;-73
2021/09/03 09:44:47;;;;;;;9.07;5.20;;;;;;;19.16;83.74;101551.47;5115279;28;20428;-73
2021/09/03 09:47:14;;;;;;;11.27;5.20;;;;;;;19.29;83.40;101549.59;5114650;28;20952;-74
2021/09/03 09:49:41;;;;;;;10.90;5.53;;;;;;;19.34;80.62;101554.88;5114532;28;20758;-73
2021/09/03 09:52:08;;;;;;;11.37;4.70;;;;;;;19.39;80.31;101549.19;5114678;28;20467;-73
2021/09/03 09:54:35;;;;;;;18.80;5.97;;;;;;;19.37;80.72;101546.75;5114754;28;20463;-74
2021/09/03 09:57:04;;;;;;;7.03;4.73;;;;;;;19.38;79.78;101542.88;5114724;28;20436;-73
2021/09/03 09:59:32;;;;;;;10.43;4.90;;;;;;;19.50;79.39;101536.63;5114583;28;20491;-73
2021/09/03 10:02:01;;;;;;;13.00;5.10;;;;;;;19.54;78.71;101536.75;5093665;28;20484;-74
2021/09/03 10:04:30;;;;;;;8.30;4.30;;;;;;;19.64;80.49;101536.34;5074110;28;20434;-73
2021/09/03 10:06:59;;;;;;;9.93;5.03;;;;;;;19.75;80.40;101534.78;5074004;28;20437;-73
2021/09/03 10:09:30;;;;;;;9.23;4.10;;;;;;;19.87;80.69;101532.06;5074364;28;20449;-74
2021/09/03 10:11:58;;;;;;;13.20;5.10;;;;;;;19.98;81.18;101531.63;5094509;28;20467;-74
2021/09/03 10:14:28;;;;;;;7.97;4.03;;;;;;;20.07;80.82;101532.31;5094172;28;20432;-74
2021/09/03 10:16:56;;;;;;;8.70;5.37;;;;;;;20.20;80.05;101517.44;5094039;28;20444;-74
2021/09/03 10:19:25;;;;;;;9.27;5.10;;;;;;;20.33;78.96;101510.78;5093692;28;21019;-73
2021/09/03 10:21:54;;;;;;;9.93;5.50;;;;;;;20.44;80.00;101515.81;5094042;28;20460;-73
2021/09/03 10:24:25;;;;;;;6.83;4.17;;;;;;;20.53;78.49;101506.31;5094043;28;20472;-73
2021/09/03 10:26:54;;;;;;;6.20;4.23;;;;;;;20.61;75.67;101507.34;5093932;28;20447;-73
2021/09/03 10:29:26;;;;;;;19.93;5.40;;;;;;;20.70;76.00;101496.19;5093880;28;20487;-74
2021/09/03 10:32:24;;;;;;;9.80;4.40;;;;;;;20.74;76.66;101497.13;5093927;28;20833;-76
2021/09/03 10:34:56;;;;;;;7.73;4.33;;;;;;;20.83;75.87;101504.09;5094170;28;20425;-75
2021/09/03 10:37:29;;;;;;;7.50;3.80;;;;;;;20.92;73.12;101490.97;5093854;28;20429;-75
2021/09/03 10:39:59;;;;;;;8.33;4.23;;;;;;;21.01;76.06;101490.03;5092822;28;20475;-75
2021/09/03 10:42:45;;;;;;;8.50;4.20;;;;;;;21.12;74.68;101491.16;5093647;28;20468;-74
2021/09/03 10:45:16;;;;;;;7.20;4.10;;;;;;;21.25;74.72;101489.94;5093594;28;20889;-74
2021/09/03 10:47:46;;;;;;;10.00;4.50;;;;;;;21.40;73.73;101491.16;5093838;28;20456;-74
2021/09/03 10:50:18;;;;;;;9.23;5.00;;;;;;;21.50;74.17;101484.31;5093622;28;20445;-75
2021/09/03 10:53:17;;;;;;;6.17;4.60;;;;;;;21.63;74.67;101483.09;5095242;28;20464;-75
2021/09/03 10:55:48;;;;;;;8.23;3.97;;;;;;;21.81;74.04;101478.03;5093906;28;20429;-74
2021/09/03 10:58:30;;;;;;;7.03;4.20;;;;;;;21.97;72.56;101475.28;5093168;28;20456;-74
2021/09/03 11:01:34;;;;;;;6.20;4.03;;;;;;;22.02;72.86;101466.75;5093247;28;20483;-74
2021/09/03 11:04:04;;;;;;;8.17;4.13;;;;;;;22.09;73.24;101467.72;5093389;28;20421;-73
2021/09/03 11:06:33;;;;;;;7.30;4.00;;;;;;;22.30;73.49;101469.38;5093462;28;20533;-75
2021/09/03 11:09:02;;;;;;;12.07;4.97;;;;;;;22.40;72.44;101466.06;5093063;28;20485;-74
2021/09/03 11:11:30;;;;;;;11.10;5.23;;;;;;;22.54;73.06;101460.09;5093335;28;20467;-73
2021/09/03 11:13:59;;;;;;;5.63;4.07;;;;;;;22.57;71.46;101459.34;5093410;28;20448;-73
2021/09/03 11:16:35;;;;;;;14.27;4.83;;;;;;;22.90;69.43;101459.69;5092775;28;20956;-73
2021/09/03 11:19:04;;;;;;;10.27;5.10;;;;;;;23.58;69.28;101465.72;5093505;28;20803;-74